KHLG/HLG METAR and TAF weather

Enter ICAO airport designator
Station Type Date Time Source
KHLG METAR 2022/07/01 01:53 UTC NOAA

KHLG 010153Z 20003KT 10SM CLR 23/12 A3011 RMK AO2 SLP191 T02330122


Station Type Date Time Source
KHLG Decoded METAR 2022/07/01 01:53 UTC NOAA

WHEELING OHIO COUNTY AIRPORT, WV, United States (KHLG) 40-10N 080-39W 372M
Jun 30, 2022 - 09:53 PM EDT / 2022.07.01 0153 UTC
Wind: from the SSW (200 degrees) at 3 MPH (3 KT):0
Visibility: 10 mile(s):0
Sky conditions: clear
Temperature: 73.9 F (23.3 C)
Dew Point: 54.0 F (12.2 C)
Relative Humidity: 49%
Pressure (altimeter): 30.11 in. Hg (1019 hPa)
ob: KHLG 010153Z 20003KT 10SM CLR 23/12 A3011 RMK AO2 SLP191 T02330122
cycle: 2

Station Type Date Time Source
KHLG TAF 2022/06/30 18:22 UTC NOAA

TAF KHLG 301720Z 3018/0118 18005KT P6SM SKC
FM011500 23010KT P6SM BKN050

Example: see airport list